Time;durP1;ratioP1;P1;durP2;ratioP2;P2;SDS_P1;SDS_P2;PMS_P1;PMS_P2;Temp;Humidity;BMP_temperature;BMP_pressure;BME280_temperature;BME280_humidity;BME280_pressure;Samples;Min_cycle;Max_cycle;Signal;HPM_P1;HPM_P2
2022/07/11 00:00:19;;;;;;;2.50;1.50;;;23.30;49.70;;;;;;5044002;28;20114;-78
2022/07/11 00:02:45;;;;;;;2.45;1.40;;;23.30;50.10;;;;;;5041279;28;20038;-78
2022/07/11 00:05:10;;;;;;;2.70;1.33;;;23.30;50.00;;;;;;5044895;28;20119;-78
2022/07/11 00:07:37;;;;;;;2.95;1.27;;;23.30;50.40;;;;;;5056515;28;20037;-78
2022/07/11 00:10:10;;;;;;;2.25;1.40;;;23.30;49.90;;;;;;5058205;28;20075;-78
2022/07/11 00:12:36;;;;;;;3.10;1.50;;;23.20;50.80;;;;;;5053976;28;20478;-78
2022/07/11 00:15:02;;;;;;;2.05;1.33;;;23.30;50.50;;;;;;5038029;28;20108;-78
2022/07/11 00:17:27;;;;;;;1.65;1.08;;;23.20;50.00;;;;;;5045055;28;20033;-78
2022/07/11 00:19:53;;;;;;;5.00;1.50;;;23.20;50.50;;;;;;5058025;28;20392;-78
2022/07/11 00:22:20;;;;;;;2.63;1.48;;;23.10;50.50;;;;;;5053445;28;20075;-77
2022/07/11 00:24:46;;;;;;;4.20;1.40;;;23.20;50.60;;;;;;5037256;28;20075;-78
2022/07/11 00:27:13;;;;;;;5.40;1.45;;;23.10;50.80;;;;;;5037559;28;20555;-78
2022/07/11 00:29:39;;;;;;;2.83;1.73;;;23.10;50.70;;;;;;5037704;28;20514;-78
2022/07/11 00:32:05;;;;;;;2.58;1.52;;;23.00;50.90;;;;;;5037624;28;20112;-78
2022/07/11 00:34:31;;;;;;;3.15;1.30;;;22.90;51.60;;;;;;5037640;28;20033;-78
2022/07/11 00:36:57;;;;;;;4.25;1.30;;;22.90;51.50;;;;;;5037556;28;20040;-78
2022/07/11 00:39:22;;;;;;;3.95;1.45;;;22.90;51.20;;;;;;5037703;28;20064;-78
2022/07/11 00:41:48;;;;;;;3.65;1.33;;;22.90;51.20;;;;;;5037206;28;20017;-78
2022/07/11 00:44:25;;;;;;;1.98;1.20;;;22.90;51.10;;;;;;5037477;28;20067;-78
2022/07/11 00:46:50;;;;;;;3.00;1.40;;;22.80;51.50;;;;;;5040846;28;20104;-78
2022/07/11 00:49:16;;;;;;;5.55;1.42;;;22.80;51.60;;;;;;5056573;28;20059;-78
2022/07/11 00:51:42;;;;;;;4.03;1.60;;;22.80;51.30;;;;;;5057395;28;20025;-78
2022/07/11 00:54:09;;;;;;;3.40;1.10;;;22.80;51.60;;;;;;5045015;28;20515;-78
2022/07/11 00:56:35;;;;;;;2.60;1.27;;;22.80;51.30;;;;;;5036080;28;20034;-78
2022/07/11 00:59:01;;;;;;;2.42;1.33;;;22.80;51.10;;;;;;5055259;28;20041;-78
2022/07/11 01:01:29;;;;;;;4.40;1.52;;;22.70;51.50;;;;;;5055813;28;20013;-78
2022/07/11 01:03:55;;;;;;;4.97;1.40;;;22.70;51.20;;;;;;5057243;28;20053;-78
2022/07/11 01:06:21;;;;;;;2.72;1.05;;;22.80;51.40;;;;;;5057041;28;20079;-78
2022/07/11 01:08:46;;;;;;;3.65;1.35;;;22.70;51.40;;;;;;5056949;28;20028;-78
2022/07/11 01:11:15;;;;;;;3.20;1.50;;;22.70;51.60;;;;;;5051522;28;20055;-78
2022/07/11 01:13:41;;;;;;;2.45;1.20;;;22.70;51.60;;;;;;5036811;28;20025;-78
2022/07/11 01:16:15;;;;;;;2.30;1.13;;;22.60;51.40;;;;;;5052565;28;20029;-78
2022/07/11 01:18:52;;;;;;;3.63;1.40;;;22.60;51.70;;;;;;5056443;28;20029;-78
2022/07/11 01:21:30;;;;;;;3.10;0.90;;;22.60;51.90;;;;;;5056849;28;20071;-78
2022/07/11 01:24:14;;;;;;;2.63;1.20;;;22.60;51.80;;;;;;5054870;28;20025;-78
2022/07/11 01:26:40;;;;;;;4.07;1.23;;;22.50;52.00;;;;;;5036845;28;20056;-78
2022/07/11 01:29:10;;;;;;;3.05;1.10;;;22.50;52.00;;;;;;5036598;28;20260;-78
2022/07/11 01:31:40;;;;;;;4.78;1.40;;;22.40;52.10;;;;;;5036616;28;20116;-78
2022/07/11 01:34:06;;;;;;;1.70;1.00;;;22.40;52.30;;;;;;5036794;28;20040;-78
2022/07/11 01:36:32;;;;;;;1.83;1.10;;;22.30;52.20;;;;;;5035743;28;20108;-78
2022/07/11 01:38:57;;;;;;;4.03;1.10;;;22.40;52.40;;;;;;5035797;28;20492;-78
2022/07/11 01:41:23;;;;;;;1.52;0.88;;;22.40;52.30;;;;;;5056434;28;20043;-78
2022/07/11 01:43:49;;;;;;;4.45;1.30;;;22.30;52.40;;;;;;5045197;28;20083;-78
2022/07/11 01:46:16;;;;;;;2.60;1.25;;;22.30;52.10;;;;;;5036394;28;20052;-78
2022/07/11 01:48:42;;;;;;;2.72;1.30;;;22.30;52.40;;;;;;5036197;28;20122;-78
2022/07/11 01:51:08;;;;;;;4.13;1.30;;;22.30;52.20;;;;;;5039685;28;20024;-78
2022/07/11 01:53:33;;;;;;;3.50;1.70;;;22.30;52.60;;;;;;5055922;28;20060;-78
2022/07/11 01:55:59;;;;;;;3.25;1.35;;;22.30;52.40;;;;;;5055993;28;20029;-78
2022/07/11 01:58:25;;;;;;;5.45;1.55;;;22.30;52.30;;;;;;5054542;28;20112;-78
2022/07/11 02:00:50;;;;;;;3.50;1.20;;;22.20;52.50;;;;;;5047475;28;20029;-78
2022/07/11 02:03:16;;;;;;;4.47;1.60;;;22.20;52.70;;;;;;5045812;28;20120;-78
2022/07/11 02:05:42;;;;;;;2.40;1.25;;;22.20;52.70;;;;;;5047255;28;20510;-78
2022/07/11 02:08:13;;;;;;;1.75;1.10;;;22.10;53.10;;;;;;5055822;28;20521;-78
2022/07/11 02:10:46;;;;;;;2.20;1.30;;;22.10;53.20;;;;;;5036017;28;20037;-78
2022/07/11 02:13:14;;;;;;;1.90;1.20;;;22.00;53.20;;;;;;5035747;28;20034;-77
2022/07/11 02:15:43;;;;;;;1.88;1.13;;;22.00;53.50;;;;;;5035845;28;20033;-77
2022/07/11 02:18:10;;;;;;;2.20;1.08;;;22.00;53.30;;;;;;5041596;28;20033;-78
2022/07/11 02:20:38;;;;;;;2.80;1.35;;;22.00;53.20;;;;;;5035757;28;20030;-77
2022/07/11 02:23:04;;;;;;;3.63;1.65;;;22.00;53.70;;;;;;5035620;28;20392;-77
2022/07/11 02:25:31;;;;;;;4.28;1.40;;;22.00;53.30;;;;;;5035586;28;20025;-78
2022/07/11 02:27:58;;;;;;;2.97;1.15;;;21.90;53.80;;;;;;5035506;28;20037;-77
2022/07/11 02:30:24;;;;;;;2.78;1.15;;;21.90;53.50;;;;;;5035301;28;20026;-78
2022/07/11 02:32:53;;;;;;;5.63;1.67;;;22.00;53.20;;;;;;5035307;28;20045;-77
2022/07/11 02:35:20;;;;;;;6.43;1.40;;;21.90;53.30;;;;;;5035543;28;20087;-77
2022/07/11 02:37:45;;;;;;;3.15;1.10;;;21.90;53.10;;;;;;5040323;28;20080;-78
2022/07/11 02:40:11;;;;;;;2.45;1.10;;;21.90;53.50;;;;;;5055552;28;20052;-78
2022/07/11 02:42:37;;;;;;;8.18;1.30;;;21.90;53.30;;;;;;5045665;28;20031;-77
2022/07/11 02:45:07;;;;;;;3.90;1.13;;;21.90;53.50;;;;;;5035210;28;20132;-78
2022/07/11 02:47:34;;;;;;;3.55;1.50;;;21.80;53.70;;;;;;5035239;28;20055;-78
2022/07/11 02:50:00;;;;;;;3.42;1.70;;;21.80;53.60;;;;;;5035459;28;20021;-77
2022/07/11 02:52:25;;;;;;;3.75;1.20;;;21.70;54.00;;;;;;5035290;28;20033;-77
2022/07/11 02:54:51;;;;;;;2.05;1.30;;;21.80;53.70;;;;;;5038185;28;20029;-77
2022/07/11 02:57:16;;;;;;;2.50;1.08;;;21.70;53.80;;;;;;5054894;28;20033;-78
2022/07/11 02:59:42;;;;;;;5.88;1.00;;;21.80;54.00;;;;;;5055084;28;20124;-77
2022/07/11 03:02:08;;;;;;;2.30;1.35;;;21.70;53.50;;;;;;5053341;28;20057;-78
2022/07/11 03:04:33;;;;;;;2.10;1.13;;;21.60;54.40;;;;;;5036873;28;20041;-78
2022/07/11 03:06:59;;;;;;;3.38;1.27;;;21.60;54.30;;;;;;5054825;28;20040;-77
2022/07/11 03:09:26;;;;;;;3.72;1.50;;;21.60;54.20;;;;;;5052924;28;20123;-77
2022/07/11 03:11:52;;;;;;;3.15;1.17;;;21.60;54.50;;;;;;5054966;28;20672;-77
2022/07/11 03:14:18;;;;;;;1.55;0.90;;;21.50;54.70;;;;;;5053684;28;20025;-77
2022/07/11 03:16:43;;;;;;;2.78;1.48;;;21.50;54.50;;;;;;5035959;28;20128;-78
2022/07/11 03:19:09;;;;;;;2.40;1.00;;;21.50;54.20;;;;;;5054860;28;20047;-77
2022/07/11 03:21:35;;;;;;;2.63;1.20;;;21.60;53.90;;;;;;5050915;28;20032;-78
2022/07/11 03:24:03;;;;;;;2.30;1.17;;;21.50;54.30;;;;;;5034839;28;20104;-78
2022/07/11 03:26:29;;;;;;;2.45;1.40;;;21.50;54.30;;;;;;5035064;28;20034;-77
2022/07/11 03:28:55;;;;;;;3.08;1.15;;;21.50;54.20;;;;;;5053111;28;20033;-77
2022/07/11 03:31:21;;;;;;;3.08;1.10;;;21.40;54.30;;;;;;5049451;28;20051;-78
2022/07/11 03:33:47;;;;;;;2.75;1.45;;;21.40;54.50;;;;;;5034878;28;20022;-77
2022/07/11 03:36:12;;;;;;;4.22;1.27;;;21.40;54.60;;;;;;5034805;28;20487;-77
2022/07/11 03:38:38;;;;;;;1.75;1.10;;;21.40;54.80;;;;;;5034743;28;20030;-77
2022/07/11 03:41:07;;;;;;;4.10;1.10;;;21.40;54.70;;;;;;5046858;28;20111;-78
2022/07/11 03:43:32;;;;;;;1.80;1.20;;;21.30;54.60;;;;;;5054672;28;20028;-78
2022/07/11 03:45:58;;;;;;;2.67;1.00;;;21.30;54.90;;;;;;5054692;28;20025;-77
2022/07/11 03:48:24;;;;;;;3.05;1.10;;;21.30;54.80;;;;;;5054729;28;20029;-78
2022/07/11 03:50:50;;;;;;;1.98;1.02;;;21.30;54.90;;;;;;5037239;28;20046;-78
2022/07/11 03:53:15;;;;;;;2.78;1.33;;;21.30;55.40;;;;;;5034594;28;20104;-77
2022/07/11 03:55:41;;;;;;;1.80;0.93;;;21.20;55.80;;;;;;5037547;28;20025;-78
2022/07/11 03:58:07;;;;;;;5.63;0.93;;;21.10;55.70;;;;;;5051299;28;20021;-77
2022/07/11 04:00:33;;;;;;;4.25;1.20;;;21.00;55.80;;;;;;5055576;28;20452;-78
2022/07/11 04:02:59;;;;;;;3.10;1.23;;;21.00;55.80;;;;;;5056515;28;20024;-78
2022/07/11 04:05:25;;;;;;;2.05;1.10;;;21.10;55.90;;;;;;5038191;28;20049;-77
2022/07/11 04:07:51;;;;;;;2.88;1.42;;;21.10;55.60;;;;;;5038172;28;20108;-77
2022/07/11 04:10:17;;;;;;;4.05;1.42;;;21.00;55.90;;;;;;5037212;28;20064;-78
2022/07/11 04:12:44;;;;;;;2.67;1.20;;;21.00;55.80;;;;;;5037918;28;20022;-78
2022/07/11 04:15:12;;;;;;;1.75;1.08;;;21.00;55.60;;;;;;5050977;28;20040;-77
2022/07/11 04:17:38;;;;;;;4.40;1.40;;;21.00;55.50;;;;;;5057794;28;20468;-78
2022/07/11 04:20:05;;;;;;;2.58;0.95;;;21.00;55.80;;;;;;5058107;28;20048;-78
2022/07/11 04:22:30;;;;;;;1.95;1.02;;;21.00;56.10;;;;;;5057921;28;20128;-77
2022/07/11 04:24:56;;;;;;;2.63;1.15;;;21.00;55.70;;;;;;5046280;28;20091;-77
2022/07/11 04:27:22;;;;;;;2.70;1.10;;;21.00;55.80;;;;;;5037780;28;20025;-78
2022/07/11 04:29:48;;;;;;;1.73;1.05;;;21.00;55.60;;;;;;5037885;28;20030;-77
2022/07/11 04:32:14;;;;;;;2.00;1.27;;;20.90;56.00;;;;;;5037458;28;20423;-77
2022/07/11 04:34:39;;;;;;;5.13;1.20;;;20.90;56.00;;;;;;5037501;28;20120;-78
2022/07/11 04:37:05;;;;;;;2.80;1.10;;;20.90;55.80;;;;;;5037540;28;20534;-78
2022/07/11 04:39:34;;;;;;;1.92;1.33;;;20.90;55.60;;;;;;5036587;28;20531;-77
2022/07/11 04:42:00;;;;;;;2.03;1.13;;;20.80;55.90;;;;;;5037486;28;20018;-77
2022/07/11 04:44:27;;;;;;;1.70;1.10;;;20.90;56.40;;;;;;5037659;28;20491;-78
2022/07/11 04:46:53;;;;;;;4.13;1.00;;;20.80;56.40;;;;;;5052943;28;20028;-77
2022/07/11 04:49:18;;;;;;;3.85;1.45;;;20.80;56.20;;;;;;5050798;28;20116;-77
2022/07/11 04:51:44;;;;;;;3.58;1.05;;;20.80;56.20;;;;;;5052180;28;20515;-77
2022/07/11 04:54:10;;;;;;;1.80;1.10;;;20.80;56.00;;;;;;5057356;28;20025;-77
2022/07/11 04:56:37;;;;;;;1.83;0.98;;;20.90;56.20;;;;;;5039110;28;20029;-77
2022/07/11 04:59:07;;;;;;;2.55;0.70;;;20.90;55.80;;;;;;5037297;28;20022;-78
2022/07/11 05:01:34;;;;;;;2.63;1.08;;;20.90;56.20;;;;;;5053278;28;20045;-78
2022/07/11 05:04:00;;;;;;;2.40;1.27;;;20.80;56.50;;;;;;5045918;28;20095;-77
2022/07/11 05:06:26;;;;;;;2.95;1.20;;;20.80;56.30;;;;;;5038021;28;20029;-77
2022/07/11 05:08:54;;;;;;;2.58;1.10;;;20.80;56.30;;;;;;5036885;28;20485;-78
2022/07/11 05:11:19;;;;;;;1.90;0.77;;;20.80;56.40;;;;;;5042050;28;20017;-77
2022/07/11 05:13:46;;;;;;;2.75;1.23;;;20.80;56.40;;;;;;5056679;28;20039;-77
2022/07/11 05:16:12;;;;;;;2.08;1.15;;;20.80;56.10;;;;;;5041398;28;20044;-77
2022/07/11 05:18:38;;;;;;;2.95;1.42;;;20.80;56.60;;;;;;5053607;28;20395;-78
2022/07/11 05:21:04;;;;;;;2.53;0.98;;;20.80;56.30;;;;;;5056929;28;20017;-77
2022/07/11 05:23:30;;;;;;;2.05;1.00;;;20.90;56.50;;;;;;5048591;28;20037;-77
2022/07/11 05:25:56;;;;;;;4.25;1.42;;;20.80;56.40;;;;;;5036585;28;20399;-77
2022/07/11 05:28:21;;;;;;;2.85;1.58;;;20.80;56.70;;;;;;5036525;28;20044;-77
2022/07/11 05:30:47;;;;;;;2.15;1.30;;;20.80;57.30;;;;;;5036664;28;20026;-78
2022/07/11 05:33:12;;;;;;;3.97;1.50;;;20.80;57.50;;;;;;5036506;28;20030;-78
2022/07/11 05:35:38;;;;;;;2.58;1.40;;;20.80;57.20;;;;;;5036910;28;20037;-77
2022/07/11 05:38:04;;;;;;;2.75;1.42;;;20.80;57.40;;;;;;5050623;28;20035;-78
2022/07/11 05:40:29;;;;;;;3.03;1.30;;;20.80;57.60;;;;;;5056396;28;20047;-77
2022/07/11 05:42:55;;;;;;;3.72;1.45;;;20.80;57.80;;;;;;5036150;28;20045;-78
2022/07/11 05:45:20;;;;;;;2.55;1.52;;;20.80;57.70;;;;;;5036352;28;20063;-78
2022/07/11 05:47:46;;;;;;;5.00;1.40;;;20.80;57.40;;;;;;5036143;28;20079;-77
2022/07/11 05:50:12;;;;;;;2.45;1.40;;;20.80;57.60;;;;;;5038380;28;20112;-77
2022/07/11 05:52:37;;;;;;;3.00;1.08;;;20.80;57.90;;;;;;5056213;28;20530;-77
2022/07/11 05:55:04;;;;;;;3.22;1.02;;;20.80;57.90;;;;;;5054135;28;20483;-77
2022/07/11 05:57:30;;;;;;;2.05;1.05;;;20.80;57.30;;;;;;5036154;28;20108;-77
2022/07/11 05:59:55;;;;;;;5.07;1.02;;;20.80;57.50;;;;;;5038405;28;20064;-77
2022/07/11 06:02:21;;;;;;;2.13;1.13;;;20.90;57.30;;;;;;5056161;28;20120;-77
2022/07/11 06:04:46;;;;;;;2.20;1.08;;;20.90;57.70;;;;;;5053197;28;20514;-78
2022/07/11 06:08:40;;;;;;;1.40;0.77;;;20.90;57.50;;;;;;5055821;28;20064;-77
2022/07/11 06:09:58;;;;;;;1.77;1.27;;;20.90;57.40;;;;;;5055711;28;20057;-77
2022/07/11 06:12:25;;;;;;;2.78;1.00;;;21.00;56.40;;;;;;5039146;28;20053;-77
2022/07/11 06:14:50;;;;;;;2.28;0.98;;;21.00;56.90;;;;;;5035482;28;20087;-78
2022/07/11 06:17:16;;;;;;;1.58;0.90;;;21.00;56.80;;;;;;5041192;28;20031;-78
2022/07/11 06:19:41;;;;;;;3.78;1.10;;;21.00;56.70;;;;;;5055810;28;20021;-77
2022/07/11 06:22:07;;;;;;;1.55;0.95;;;21.00;56.50;;;;;;5055340;28;20025;-78
2022/07/11 06:24:33;;;;;;;2.15;0.73;;;21.10;56.90;;;;;;5038612;28;20041;-77
2022/07/11 06:27:00;;;;;;;1.58;1.00;;;21.00;56.90;;;;;;5035638;28;20025;-77
2022/07/11 06:29:26;;;;;;;2.70;0.75;;;21.10;56.80;;;;;;5035536;28;20029;-77
2022/07/11 06:31:52;;;;;;;2.25;1.10;;;21.10;57.00;;;;;;5035444;28;20414;-77
2022/07/11 06:34:18;;;;;;;2.35;1.13;;;21.10;56.40;;;;;;5035438;28;20037;-77
2022/07/11 06:36:44;;;;;;;2.75;1.00;;;21.10;56.70;;;;;;5035190;28;20028;-77
2022/07/11 06:39:09;;;;;;;2.15;0.90;;;21.10;56.80;;;;;;5035455;28;20097;-78
2022/07/11 06:41:35;;;;;;;2.53;1.23;;;21.10;56.90;;;;;;5035131;28;20026;-77
2022/07/11 06:44:01;;;;;;;3.25;0.93;;;21.20;57.00;;;;;;5035281;28;20481;-78
2022/07/11 06:46:27;;;;;;;3.22;1.00;;;21.20;56.60;;;;;;5035256;28;20032;-78
2022/07/11 06:48:53;;;;;;;1.50;1.15;;;21.20;56.80;;;;;;5035220;28;20029;-77
2022/07/11 06:51:18;;;;;;;3.30;0.90;;;21.20;57.10;;;;;;5046514;28;20092;-78
2022/07/11 06:53:44;;;;;;;1.42;1.00;;;21.30;57.10;;;;;;5055062;28;20025;-78
2022/07/11 06:56:10;;;;;;;2.05;1.17;;;21.30;56.90;;;;;;5037455;28;20014;-78
2022/07/11 06:58:36;;;;;;;2.03;1.10;;;21.30;56.90;;;;;;5035016;28;20087;-78
2022/07/11 07:01:05;;;;;;;3.22;1.20;;;21.40;56.80;;;;;;5046473;28;20025;-78
2022/07/11 07:03:35;;;;;;;2.45;0.98;;;21.40;57.10;;;;;;5039045;28;20060;-78
2022/07/11 07:06:01;;;;;;;3.85;1.10;;;21.40;57.30;;;;;;5035017;28;20033;-78
2022/07/11 07:08:28;;;;;;;1.88;1.15;;;21.50;57.10;;;;;;5035019;28;20045;-77
2022/07/11 07:10:55;;;;;;;1.48;0.80;;;21.60;56.90;;;;;;5038598;28;20487;-78
2022/07/11 07:13:23;;;;;;;2.70;0.98;;;21.60;56.70;;;;;;5053863;28;20063;-77
2022/07/11 07:15:50;;;;;;;2.67;0.90;;;21.70;56.30;;;;;;5054820;28;20048;-78
2022/07/11 07:18:15;;;;;;;1.48;1.17;;;21.80;55.90;;;;;;5054351;28;20029;-78
2022/07/11 07:20:41;;;;;;;1.63;0.85;;;21.80;55.60;;;;;;5053799;28;20025;-78
2022/07/11 07:23:07;;;;;;;3.40;1.05;;;22.00;55.30;;;;;;5054849;28;20103;-78
2022/07/11 07:25:33;;;;;;;2.13;0.60;;;22.20;55.30;;;;;;5054880;28;20052;-78
2022/07/11 07:27:59;;;;;;;1.55;0.77;;;22.30;54.60;;;;;;5050524;28;20030;-78
2022/07/11 07:30:25;;;;;;;4.43;1.00;;;22.50;54.80;;;;;;5034873;28;20923;-78
2022/07/11 07:32:50;;;;;;;2.22;0.60;;;22.90;52.70;;;;;;5034705;28;20030;-78
2022/07/11 07:35:16;;;;;;;1.20;0.70;;;23.70;49.80;;;;;;5034470;28;20029;-78
2022/07/11 07:37:42;;;;;;;1.63;0.60;;;25.20;46.30;;;;;;5039043;28;20460;-78
2022/07/11 07:40:08;;;;;;;0.70;0.40;;;26.80;43.10;;;;;;5038845;28;20021;-79
2022/07/11 07:42:33;;;;;;;0.90;0.60;;;28.00;40.60;;;;;;5038554;28;20033;-79
2022/07/11 07:44:59;;;;;;;1.90;0.98;;;29.70;35.90;;;;;;5038656;28;20028;-80
2022/07/11 07:47:25;;;;;;;0.95;0.55;;;31.40;32.10;;;;;;5038757;28;20022;-79
2022/07/11 07:49:50;;;;;;;0.70;0.40;;;33.70;30.90;;;;;;5038637;28;20025;-80
2022/07/11 07:52:16;;;;;;;1.40;0.50;;;35.50;27.20;;;;;;5057413;28;20071;-80
2022/07/11 07:54:42;;;;;;;1.77;0.70;;;36.80;26.60;;;;;;5053334;28;20027;-80
2022/07/11 07:57:08;;;;;;;3.40;1.02;;;37.80;24.60;;;;;;5038113;28;20097;-80
2022/07/11 07:59:34;;;;;;;1.80;0.68;;;39.20;23.40;;;;;;5038736;28;20112;-79
2022/07/11 08:01:59;;;;;;;1.58;0.80;;;40.00;23.00;;;;;;5046266;28;20021;-81
2022/07/11 08:04:25;;;;;;;1.25;0.80;;;39.90;22.40;;;;;;5038298;28;20459;-80
2022/07/11 08:06:51;;;;;;;1.10;0.60;;;40.60;21.20;;;;;;5038066;28;20060;-79
2022/07/11 08:09:16;;;;;;;3.25;3.05;;;40.80;21.50;;;;;;5038118;28;20026;-80
2022/07/11 08:11:43;;;;;;;1.83;0.70;;;41.10;20.20;;;;;;5048274;28;20086;-80
2022/07/11 08:14:09;;;;;;;1.60;0.57;;;40.90;20.10;;;;;;5057035;28;20036;-80
2022/07/11 08:16:35;;;;;;;1.38;0.50;;;41.80;20.80;;;;;;5058060;28;20025;-80
2022/07/11 08:19:03;;;;;;;1.33;0.68;;;42.20;19.80;;;;;;5038200;28;20049;-80
2022/07/11 08:21:30;;;;;;;3.15;0.80;;;41.40;19.90;;;;;;5038010;28;20049;-80
2022/07/11 08:23:56;;;;;;;1.83;0.70;;;40.40;20.30;;;;;;5037980;28;20036;-80
2022/07/11 08:26:22;;;;;;;2.35;0.90;;;41.10;20.70;;;;;;5037706;28;20018;-80
2022/07/11 08:28:47;;;;;;;2.00;0.70;;;41.40;19.60;;;;;;5037444;28;20034;-80
2022/07/11 08:31:13;;;;;;;3.92;0.80;;;41.60;20.50;;;;;;5038044;28;20484;-80
2022/07/11 08:33:39;;;;;;;2.15;0.70;;;42.40;18.80;;;;;;5037922;28;20093;-80
2022/07/11 08:36:06;;;;;;;2.10;0.60;;;43.00;19.80;;;;;;5037536;28;20021;-80
2022/07/11 08:38:32;;;;;;;4.33;1.10;;;43.60;18.80;;;;;;5036441;28;20074;-80
2022/07/11 08:40:57;;;;;;;1.88;0.70;;;43.80;18.60;;;;;;5037549;28;20033;-80
2022/07/11 08:43:28;;;;;;;2.35;0.75;;;43.60;18.20;;;;;;5037544;28;20053;-80
2022/07/11 08:45:55;;;;;;;4.05;0.90;;;43.30;19.10;;;;;;5036832;28;20022;-81
2022/07/11 08:48:22;;;;;;;2.55;0.77;;;43.00;17.90;;;;;;5037453;28;20025;-80
2022/07/11 08:50:49;;;;;;;1.80;0.90;;;41.50;18.90;;;;;;5041286;28;20040;-79
2022/07/11 08:53:16;;;;;;;2.65;0.80;;;41.30;20.00;;;;;;5037594;28;20025;-81
2022/07/11 08:55:41;;;;;;;2.72;1.00;;;42.10;18.90;;;;;;5037259;28;20030;-80
2022/07/11 08:58:08;;;;;;;2.95;0.85;;;42.80;18.90;;;;;;5037043;28;20025;-80
2022/07/11 09:00:35;;;;;;;5.68;0.90;;;42.90;18.20;;;;;;5045097;28;20029;-80
2022/07/11 09:03:02;;;;;;;1.02;0.60;;;42.20;18.40;;;;;;5056809;28;20021;-80
2022/07/11 09:05:31;;;;;;;1.73;0.65;;;42.10;19.60;;;;;;5037148;28;20037;-80
2022/07/11 09:07:56;;;;;;;0.95;0.55;;;42.10;18.90;;;;;;5037195;28;20090;-80
2022/07/11 09:10:22;;;;;;;1.08;0.68;;;42.10;19.10;;;;;;5036912;28;20064;-80
2022/07/11 09:13:07;;;;;;;2.55;0.73;;;42.00;18.80;;;;;;5056401;28;20387;-80
2022/07/11 09:15:39;;;;;;;1.30;0.50;;;41.20;19.40;;;;;;5055719;28;20037;-80
2022/07/11 09:18:26;;;;;;;3.95;0.70;;;41.70;19.30;;;;;;5056751;28;20108;-80
2022/07/11 09:26:34;;;;;;;3.65;0.90;;;43.50;17.40;;;;;;5036911;28;20127;-80
2022/07/11 09:29:04;;;;;;;2.42;0.55;;;42.60;19.00;;;;;;5056237;28;20025;-80
2022/07/11 09:31:32;;;;;;;2.35;0.63;;;43.30;18.40;;;;;;5045801;28;20033;-80
2022/07/11 09:34:14;;;;;;;1.70;0.77;;;43.90;19.30;;;;;;5036746;28;20021;-80
2022/07/11 09:36:45;;;;;;;1.95;0.60;;;43.50;17.30;;;;;;5036529;28;20025;-80
2022/07/11 09:39:19;;;;;;;4.07;0.80;;;43.70;17.80;;;;;;5036928;28;20033;-79
2022/07/11 09:41:46;;;;;;;1.27;0.70;;;44.20;18.80;;;;;;5041045;28;20108;-80
2022/07/11 09:44:26;;;;;;;1.63;0.90;;;44.50;18.40;;;;;;5056488;28;20020;-80
2022/07/11 09:46:53;;;;;;;2.53;0.77;;;44.90;17.70;;;;;;5052054;28;20036;-80
2022/07/11 09:49:33;;;;;;;2.35;0.80;;;45.10;17.50;;;;;;5056505;28;20101;-80
2022/07/11 09:52:19;;;;;;;1.90;0.80;;;43.90;16.80;;;;;;5048996;28;20036;-80
2022/07/11 09:54:56;;;;;;;1.30;0.70;;;43.10;17.60;;;;;;5036030;28;20083;-80
2022/07/11 09:57:38;;;;;;;1.25;0.47;;;43.00;17.80;;;;;;5042032;28;20044;-80
2022/07/11 10:00:09;;;;;;;0.90;0.60;;;42.50;18.50;;;;;;5055684;28;20067;-80
2022/07/11 10:02:35;;;;;;;2.55;0.65;;;42.70;17.80;;;;;;5056013;28;20052;-80
2022/07/11 10:05:02;;;;;;;1.40;0.68;;;42.40;18.70;;;;;;5055979;28;20061;-79
2022/07/11 10:07:29;;;;;;;1.67;0.57;;;43.30;18.30;;;;;;5040774;28;20078;-80
2022/07/11 10:09:56;;;;;;;1.95;0.50;;;43.20;17.40;;;;;;5036043;28;20060;-80
2022/07/11 10:12:22;;;;;;;3.90;1.03;;;42.80;18.20;;;;;;5051546;28;20773;-79
2022/07/11 10:14:49;;;;;;;1.85;0.52;;;42.70;17.80;;;;;;5053902;28;20029;-80
2022/07/11 10:17:26;;;;;;;2.53;0.90;;;42.80;18.80;;;;;;5041176;28;20033;-80
2022/07/11 10:20:27;;;;;;;1.38;0.65;;;41.80;18.70;;;;;;5055948;28;20036;-79
2022/07/11 10:23:14;;;;;;;1.60;0.57;;;41.60;19.50;;;;;;5035824;28;20028;-80
2022/07/11 10:25:48;;;;;;;2.50;0.60;;;40.80;19.10;;;;;;5035807;28;20064;-80
2022/07/11 10:28:25;;;;;;;1.55;0.50;;;40.70;20.10;;;;;;5035537;28;20377;-80
2022/07/11 10:31:01;;;;;;;1.27;0.70;;;41.00;19.80;;;;;;5035567;28;20067;-80
2022/07/11 10:33:28;;;;;;;2.80;0.63;;;40.70;19.80;;;;;;5035509;28;20086;-79
2022/07/11 10:35:54;;;;;;;1.00;0.53;;;40.80;21.10;;;;;;5038330;28;20075;-80
2022/07/11 10:38:21;;;;;;;3.45;0.60;;;40.80;20.20;;;;;;5048951;28;20025;-80
2022/07/11 10:40:54;;;;;;;1.10;0.50;;;41.20;20.50;;;;;;5035596;28;20083;-80
2022/07/11 10:43:22;;;;;;;5.28;0.77;;;40.70;20.50;;;;;;5035247;28;20479;-80
2022/07/11 10:46:07;;;;;;;1.15;0.40;;;40.30;21.00;;;;;;5034303;28;20032;-80
2022/07/11 10:48:35;;;;;;;0.93;0.47;;;38.70;21.50;;;;;;5035198;28;20025;-79
2022/07/11 10:51:03;;;;;;;1.95;0.50;;;37.80;23.90;;;;;;5035426;28;20032;-79
2022/07/11 10:53:39;;;;;;;1.63;0.40;;;36.90;23.80;;;;;;5034946;28;20025;-79
2022/07/11 10:56:29;;;;;;;7.93;1.05;;;36.40;25.00;;;;;;5033941;28;20036;-80
2022/07/11 10:59:02;;;;;;;4.40;0.57;;;34.80;25.90;;;;;;5035009;28;20045;-79
2022/07/11 11:01:28;;;;;;;2.17;0.70;;;34.30;27.80;;;;;;5050370;28;20025;-79
2022/07/11 11:04:32;;;;;;;3.88;1.42;;;33.70;27.60;;;;;;5055091;28;20128;-79
2022/07/11 11:06:58;;;;;;;1.65;0.60;;;33.60;27.80;;;;;;5049405;28;20021;-79
2022/07/11 11:09:38;;;;;;;0.88;0.40;;;33.20;28.50;;;;;;5036713;28;20040;-79
2022/07/11 11:12:03;;;;;;;1.48;0.50;;;33.00;29.10;;;;;;5054382;28;20023;-78
2022/07/11 11:14:30;;;;;;;0.90;0.52;;;33.30;29.20;;;;;;5058444;28;20112;-79
2022/07/11 11:17:37;;;;;;;1.63;0.50;;;33.00;29.70;;;;;;5044332;28;20107;-79
2022/07/11 11:20:04;;;;;;;1.70;0.50;;;32.60;29.70;;;;;;5042750;28;20021;-79
2022/07/11 11:22:30;;;;;;;1.85;0.63;;;32.90;29.80;;;;;;5041654;28;20022;-79
2022/07/11 11:24:57;;;;;;;2.65;0.55;;;33.20;30.00;;;;;;5041705;28;20026;-79
2022/07/11 11:27:26;;;;;;;1.52;0.55;;;33.20;30.20;;;;;;5040304;28;20052;-79
2022/07/11 11:29:55;;;;;;;1.55;0.50;;;33.30;29.10;;;;;;5041485;28;20060;-79
2022/07/11 11:32:27;;;;;;;1.00;0.40;;;33.50;29.40;;;;;;5041011;28;20041;-79
2022/07/11 11:34:53;;;;;;;1.20;0.40;;;33.40;29.40;;;;;;5041505;28;20467;-79
2022/07/11 11:37:20;;;;;;;1.73;0.50;;;33.50;30.00;;;;;;5055900;28;20392;-80
2022/07/11 11:39:46;;;;;;;1.40;0.50;;;33.40;29.10;;;;;;5060098;28;20045;-79
2022/07/11 11:42:14;;;;;;;1.77;0.45;;;33.20;29.90;;;;;;5061280;28;20025;-79
2022/07/11 11:44:59;;;;;;;2.67;0.50;;;33.30;30.30;;;;;;5061530;28;20020;-79
2022/07/11 11:47:28;;;;;;;2.42;0.60;;;33.30;30.60;;;;;;5041587;28;20403;-79
2022/07/11 11:49:53;;;;;;;4.68;0.65;;;33.30;30.30;;;;;;5046388;28;20070;-79
2022/07/11 11:52:20;;;;;;;1.92;0.50;;;33.00;30.10;;;;;;5061256;28;20052;-79
2022/07/11 11:54:51;;;;;;;2.47;0.60;;;32.90;29.90;;;;;;5060147;28;20033;-79
2022/07/11 11:57:20;;;;;;;2.47;0.65;;;32.70;30.30;;;;;;5045938;28;20036;-79
2022/07/11 11:59:45;;;;;;;5.03;0.60;;;32.90;29.90;;;;;;5042480;28;20018;-79
2022/07/11 12:02:11;;;;;;;2.25;0.63;;;32.90;30.50;;;;;;5061491;28;20076;-79
2022/07/11 12:04:37;;;;;;;1.13;0.38;;;33.10;30.50;;;;;;5061174;28;20060;-79
2022/07/11 12:07:04;;;;;;;1.45;0.60;;;33.20;30.90;;;;;;5041832;28;20037;-79
2022/07/11 12:15:06;;;;;;;1.27;0.60;;;33.30;30.20;;;;;;5061352;28;20036;-79
2022/07/11 12:17:32;;;;;;;2.88;0.40;;;33.40;30.40;;;;;;5061172;28;20080;-79
2022/07/11 12:19:58;;;;;;;1.38;0.50;;;33.20;29.40;;;;;;5059773;28;20479;-79
2022/07/11 12:22:25;;;;;;;0.70;0.30;;;33.00;29.60;;;;;;5057491;28;20025;-79
2022/07/11 12:24:52;;;;;;;0.80;0.40;;;32.80;30.20;;;;;;5057970;28;20037;-79
2022/07/11 12:27:26;;;;;;;1.63;0.47;;;32.90;29.90;;;;;;5055802;28;20025;-79
2022/07/11 12:29:52;;;;;;;1.08;0.50;;;32.90;30.70;;;;;;5037883;28;20495;-79
2022/07/11 12:32:20;;;;;;;1.25;0.50;;;32.80;31.40;;;;;;5048172;28;20033;-79
2022/07/11 12:34:47;;;;;;;1.60;0.47;;;32.90;31.60;;;;;;5053879;28;20025;-79
2022/07/11 12:37:19;;;;;;;1.38;0.47;;;33.00;32.00;;;;;;5051287;28;20081;-79
2022/07/11 12:39:52;;;;;;;0.98;0.30;;;33.20;30.90;;;;;;5057626;28;20025;-79
2022/07/11 12:42:32;;;;;;;1.48;0.98;;;33.30;30.90;;;;;;5056228;28;20476;-79
2022/07/11 12:45:09;;;;;;;5.30;0.55;;;33.30;31.90;;;;;;5055906;28;20025;-79
2022/07/11 12:47:45;;;;;;;3.72;0.93;;;33.40;31.00;;;;;;5057493;28;20067;-79
2022/07/11 12:50:14;;;;;;;0.98;0.43;;;33.30;30.70;;;;;;5057573;28;20052;-79
2022/07/11 12:52:41;;;;;;;2.67;0.68;;;33.30;30.90;;;;;;5054605;28;20037;-79
2022/07/11 12:55:11;;;;;;;1.52;0.68;;;33.20;30.00;;;;;;5037473;28;20087;-79
2022/07/11 12:57:37;;;;;;;;;;;33.00;31.00;;;;;;5037716;28;20571;-79
2022/07/11 13:00:16;;;;;;;1.92;0.50;;;33.00;30.70;;;;;;5040924;28;20441;-79
2022/07/11 13:02:52;;;;;;;2.58;0.63;;;32.90;30.60;;;;;;5043217;28;20508;-79